Главная страница
METAR-TAF:

METAR-TAF

Аэропорты :

Williamsport, Пенсильвания, США

широта: 41-14-30N, долгота: 076-55-15W, высота над уровнем моря: 161 м

Текущие метеонаблюдения

Эта сводка был подготовлена 55 минут назад, в 09:54 UTC
Штиль
Температура 11°C
Влажность 82%
Давление 1015 hPa
Видимость: 16.1 км
ясное небо

METAR: KIPT 240954Z AUTO 00000KT 10SM CLR 11/08 A2998 RMK AO2 SLP150 T01060078 $

Время: 06:49 (10:49 UTC)

Прогноз

Эта сводка был подготовлена 1 час и 12 минут назад, в 09:37 UTC
Прогноз действительный с 24-го 10 UTC до 25-го 06 UTC
Ветер 4 Узел от западно-северо-западный
Видимость: 10 км
Отдельные облака на высоте 25000 фута
С 24-го 1400 UTC
Ветер 7 Узел от юго-западный
Видимость: 10 км
небольшая облачность на высоте 4000 фута
С 24-го 2300 UTC
Ветер 4 Узел от западный
Видимость: 10 км
Отдельные облака на высоте 25000 фута

TAF: KIPT 240937Z 2410/2506 29004KT P6SM SCT250 FM241400 23007KT P6SM FEW040 FM242300 26004KT P6SM SCT250

Метеонаблюдения и прогнозы для более 4000 аэропортов (сводки METAR и TAF).

Имеющиеся станции представлены на карте желтыми и красными точками.

Чтобы увидеть название станции, наведите на нее мышь.

Затем щелкните, чтобы увидеть метеонаблюдения и метеопрогнозы.

Управление картой: чтобы увеличить масштаб, щелкните зеленые кнопки с черным крестиком; чтобы уменьшить масштаб, щелкните зеленую кнопку с тире; для просмотра соседних карт щелкайте зеленые стрелки.


METAR-TAF: